Time;durP1;ratioP1;P1;durP2;ratioP2;P2;SDS_P1;SDS_P2;PMS_P1;PMS_P2;Temp;Humidity;BMP_temperature;BMP_pressure;BME280_temperature;BME280_humidity;BME280_pressure;Samples;Min_cycle;Max_cycle;Signal;HPM_P1;HPM_P2
2021/04/20 00:01:59;;;;;;;12.57;11.27;;;;;;;13.43;71.58;100762.13;4904311;28;98309;-59
2021/04/20 00:04:26;;;;;;;13.00;11.80;;;;;;;13.37;71.74;100765.19;4904338;28;97730;-63
2021/04/20 00:06:52;;;;;;;13.10;11.90;;;;;;;13.46;71.80;100763.50;4903823;28;98886;-59
2021/04/20 00:09:18;;;;;;;13.57;12.18;;;;;;;13.34;71.61;100757.59;4902235;28;128842;-61
2021/04/20 00:11:44;;;;;;;12.75;11.45;;;;;;;13.38;72.14;100750.53;4902259;28;127677;-61
2021/04/20 00:14:12;;;;;;;13.57;12.25;;;;;;;13.37;71.63;100757.84;4885991;28;118088;-61
2021/04/20 00:16:38;;;;;;;12.60;11.40;;;;;;;13.45;72.09;100764.59;4902413;28;98025;-61
2021/04/20 00:19:05;;;;;;;12.68;11.40;;;;;;;13.29;71.37;100769.28;4917908;28;113262;-61
2021/04/20 00:21:31;;;;;;;12.27;11.07;;;;;;;13.33;71.58;100767.63;4903610;28;97804;-59
2021/04/20 00:23:57;;;;;;;12.35;11.15;;;;;;;13.27;71.52;100760.59;4904242;28;97912;-61
2021/04/20 00:26:23;;;;;;;12.27;11.07;;;;;;;13.23;71.52;100773.88;4903213;28;98695;-61
2021/04/20 00:28:49;;;;;;;12.65;11.35;;;;;;;13.20;71.54;100760.06;4902391;28;127111;-59
2021/04/20 00:31:15;;;;;;;12.38;11.07;;;;;;;13.27;71.50;100766.03;4916354;28;127782;-61
2021/04/20 00:33:42;;;;;;;12.20;11.00;;;;;;;13.15;71.57;100763.59;4903015;28;97746;-61
2021/04/20 00:36:09;;;;;;;12.40;11.15;;;;;;;13.15;71.41;100760.09;4901882;28;126049;-59
2021/04/20 00:38:37;;;;;;;12.77;11.48;;;;;;;13.13;71.41;100757.66;4885034;28;114419;-61
2021/04/20 00:41:05;;;;;;;11.90;10.57;;;;;;;13.13;71.61;100752.25;4902174;28;98362;-59
2021/04/20 00:43:36;;;;;;;12.20;11.00;;;;;;;13.05;71.48;100752.00;4903324;28;104422;-61
2021/04/20 00:46:05;;;;;;;12.05;10.75;;;;;;;13.07;71.52;100739.81;4902925;28;99256;-61
2021/04/20 00:48:31;;;;;;;12.25;10.98;;;;;;;13.05;71.97;100746.59;4898737;28;98828;-59
2021/04/20 00:50:57;;;;;;;12.10;10.90;;;;;;;13.03;71.29;100738.75;4882483;28;127129;-61
2021/04/20 00:53:23;;;;;;;11.38;10.27;;;;;;;12.95;71.60;100739.34;4883582;28;118672;-59
2021/04/20 00:55:49;;;;;;;11.77;10.57;;;;;;;13.00;71.67;100740.09;4865787;28;100256;-59
2021/04/20 00:58:15;;;;;;;11.43;10.32;;;;;;;12.94;71.53;100735.00;4883925;28;98858;-59
2021/04/20 01:00:42;;;;;;;11.68;10.48;;;;;;;12.90;71.70;100723.94;4882541;28;126493;-62
2021/04/20 01:03:08;;;;;;;11.43;10.18;;;;;;;12.95;71.59;100723.91;4884997;28;97876;-59
2021/04/20 01:05:38;;;;;;;10.98;9.75;;;;;;;12.97;71.59;100729.06;4894879;28;129055;-61
2021/04/20 01:08:06;;;;;;;11.52;10.40;;;;;;;12.92;71.33;100734.47;4902435;28;99288;-59
2021/04/20 01:10:41;;;;;;;11.93;10.75;;;;;;;12.93;71.56;100736.91;4903119;28;98080;-61
2021/04/20 01:13:09;;;;;;;12.38;11.07;;;;;;;12.90;71.31;100742.88;4903678;28;103421;-59
2021/04/20 01:15:35;;;;;;;11.90;10.70;;;;;;;12.88;71.58;100745.03;4902212;28;99267;-60
2021/04/20 01:18:16;;;;;;;11.32;10.20;;;;;;;12.89;71.32;100746.66;4901362;28;98300;-59
2021/04/20 01:20:43;;;;;;;12.40;11.10;;;;;;;12.84;71.50;100743.97;4901557;28;98388;-61
2021/04/20 01:23:12;;;;;;;12.43;10.50;;;;;;;12.76;71.56;100747.22;4902374;28;112601;-59
2021/04/20 01:25:39;;;;;;;12.13;10.82;;;;;;;12.76;71.56;100756.16;4901685;28;99005;-59
2021/04/20 01:28:05;;;;;;;12.13;10.88;;;;;;;12.81;71.37;100741.81;4902032;28;114352;-59
2021/04/20 01:30:32;;;;;;;12.27;11.02;;;;;;;12.85;71.50;100737.47;4900490;28;98251;-59
2021/04/20 01:33:04;;;;;;;12.30;11.10;;;;;;;12.77;71.40;100735.31;4881328;28;107326;-61
2021/04/20 01:35:30;;;;;;;13.15;11.85;;;;;;;12.75;71.33;100735.59;4881476;28;98384;-59
2021/04/20 01:37:56;;;;;;;12.35;11.15;;;;;;;12.69;71.43;100739.44;4881497;28;112720;-59
2021/04/20 01:40:23;;;;;;;12.80;11.43;;;;;;;12.67;71.18;100740.78;4884461;28;128136;-59
2021/04/20 01:42:49;;;;;;;13.43;11.65;;;;;;;12.67;71.52;100736.16;4884842;28;106123;-59
2021/04/20 01:45:15;;;;;;;12.75;11.45;;;;;;;12.67;71.49;100732.66;4904604;28;128059;-61
2021/04/20 01:47:41;;;;;;;13.40;11.90;;;;;;;12.63;71.50;100729.69;4920453;28;98609;-61
2021/04/20 01:50:08;;;;;;;13.32;11.93;;;;;;;12.65;71.44;100721.28;4902353;28;127551;-59
2021/04/20 01:52:34;;;;;;;13.02;11.38;;;;;;;12.64;71.64;100728.59;4905843;28;106191;-59
2021/04/20 01:55:00;;;;;;;12.88;11.57;;;;;;;12.67;71.41;100735.38;4904873;28;125950;-61
2021/04/20 01:57:27;;;;;;;13.18;11.88;;;;;;;12.62;71.57;100732.69;4903069;28;129131;-61
2021/04/20 01:59:53;;;;;;;13.30;11.90;;;;;;;12.64;71.76;100733.19;4902775;28;119380;-59
2021/04/20 02:02:19;;;;;;;12.75;11.45;;;;;;;12.65;71.45;100732.91;4887063;28;114297;-59
2021/04/20 02:04:45;;;;;;;13.45;12.05;;;;;;;12.61;71.59;100726.44;4902859;28;126991;-61
2021/04/20 02:07:12;;;;;;;15.15;12.68;;;;;;;12.61;71.34;100725.63;4905130;28;115877;-61
2021/04/20 02:09:40;;;;;;;14.35;12.85;;;;;;;12.60;71.54;100729.44;4902345;28;126918;-59
2021/04/20 02:12:07;;;;;;;13.85;12.45;;;;;;;12.59;71.36;100727.81;4887954;28;110267;-61
2021/04/20 02:14:37;;;;;;;14.43;12.93;;;;;;;12.57;71.71;100733.47;4886336;28;119269;-61
2021/04/20 02:17:03;;;;;;;15.25;13.02;;;;;;;12.58;71.60;100732.41;4905760;28;98599;-59
2021/04/20 02:19:29;;;;;;;14.38;12.88;;;;;;;12.60;71.68;100740.25;4903815;28;113743;-62
2021/04/20 02:21:55;;;;;;;14.55;12.65;;;;;;;12.59;71.47;100735.94;4887364;28;118191;-61
2021/04/20 02:24:21;;;;;;;13.93;12.45;;;;;;;12.58;71.57;100742.44;4902282;28;128463;-59
2021/04/20 02:26:48;;;;;;;13.32;12.00;;;;;;;12.60;71.51;100751.88;4887014;28;128183;-59
2021/04/20 02:29:14;;;;;;;14.75;13.05;;;;;;;12.55;71.35;100749.19;4902470;28;113838;-61
2021/04/20 02:31:42;;;;;;;14.75;13.07;;;;;;;12.52;71.62;100747.81;4902694;28;117991;-62
2021/04/20 02:34:09;;;;;;;14.05;12.50;;;;;;;12.55;71.43;100751.09;4904284;28;98376;-59
2021/04/20 02:36:43;;;;;;;14.88;13.23;;;;;;;12.58;71.89;100742.44;4903265;28;98104;-61
2021/04/20 02:39:10;;;;;;;14.25;12.57;;;;;;;12.57;71.63;100748.91;4903009;28;97940;-59
2021/04/20 02:41:39;;;;;;;14.38;12.60;;;;;;;12.51;71.60;100750.81;4904958;28;97958;-61
2021/04/20 02:44:07;;;;;;;14.30;12.82;;;;;;;12.47;71.79;100744.34;4902969;28;116797;-61
2021/04/20 02:46:34;;;;;;;13.90;12.40;;;;;;;12.49;71.70;100742.97;4905034;28;98377;-61
2021/04/20 02:49:00;;;;;;;14.73;13.27;;;;;;;12.50;71.66;100741.09;4903074;28;97793;-61
2021/04/20 02:51:27;;;;;;;14.20;12.80;;;;;;;12.48;71.51;100735.94;4902510;28;116820;-59
2021/04/20 02:53:53;;;;;;;15.02;13.45;;;;;;;12.48;71.63;100743.25;4885188;28;128836;-59
2021/04/20 02:56:19;;;;;;;14.60;12.85;;;;;;;12.49;72.06;100739.44;4885058;28;120402;-59
2021/04/20 02:58:45;;;;;;;14.15;12.45;;;;;;;12.49;71.73;100742.97;4885321;28;127357;-59
2021/04/20 03:01:25;;;;;;;14.38;12.88;;;;;;;12.47;71.72;100739.72;4903091;28;109806;-61
2021/04/20 03:03:51;;;;;;;14.27;12.77;;;;;;;12.47;71.75;100744.34;4902136;28;115119;-61
2021/04/20 03:06:19;;;;;;;14.95;13.40;;;;;;;12.47;71.57;100742.44;4901694;28;127884;-61
2021/04/20 03:08:46;;;;;;;14.90;13.30;;;;;;;12.46;71.33;100738.13;4904911;28;98055;-61
2021/04/20 03:11:25;;;;;;;14.60;12.95;;;;;;;12.47;71.80;100733.53;4901750;28;116915;-61
2021/04/20 03:13:51;;;;;;;15.10;13.52;;;;;;;12.45;71.85;100730.25;4902075;28;121143;-59
2021/04/20 03:16:17;;;;;;;15.32;13.57;;;;;;;12.48;71.73;100735.94;4919243;28;97883;-59
2021/04/20 03:18:45;;;;;;;14.82;13.27;;;;;;;12.46;72.01;100740.00;4903137;28;97942;-61
2021/04/20 03:21:14;;;;;;;15.55;13.70;;;;;;;12.45;72.07;100741.06;4886595;28;104121;-59
2021/04/20 03:23:44;;;;;;;15.07;13.48;;;;;;;12.45;72.00;100730.25;4918559;28;99255;-61
2021/04/20 03:26:25;;;;;;;14.68;13.18;;;;;;;12.43;71.85;100733.25;4887142;28;102548;-61
2021/04/20 03:28:59;;;;;;;15.23;13.63;;;;;;;12.43;72.08;100727.84;4904620;28;98062;-61
2021/04/20 03:31:25;;;;;;;14.88;13.27;;;;;;;12.43;71.87;100730.56;4903563;28;99654;-61
2021/04/20 03:34:16;;;;;;;15.20;13.57;;;;;;;12.43;71.61;100735.97;4901986;28;115419;-59
2021/04/20 03:36:49;;;;;;;15.38;13.77;;;;;;;12.43;72.13;100725.13;4903215;28;98947;-61
2021/04/20 03:39:20;;;;;;;15.43;13.82;;;;;;;12.43;71.78;100727.03;4902019;28;115239;-61
2021/04/20 03:42:11;;;;;;;15.27;13.68;;;;;;;12.44;71.97;100728.66;4903179;28;97857;-61
2021/04/20 03:44:46;;;;;;;15.07;13.50;;;;;;;12.44;71.89;100728.66;4901964;28;98056;-59
2021/04/20 03:47:26;;;;;;;16.67;14.07;;;;;;;12.45;71.91;100731.06;4902855;28;99002;-61
2021/04/20 03:49:53;;;;;;;17.42;14.50;;;;;;;12.45;71.99;100733.78;4917890;28;98777;-61
2021/04/20 03:52:26;;;;;;;16.00;14.35;;;;;;;12.45;71.70;100736.47;4902948;28;97900;-61
2021/04/20 03:54:52;;;;;;;15.35;13.75;;;;;;;12.45;71.69;100738.38;4918065;28;98398;-61
2021/04/20 03:57:21;;;;;;;16.42;14.65;;;;;;;12.45;71.80;100739.19;4903504;28;127887;-61
2021/04/20 03:59:47;;;;;;;16.70;14.90;;;;;;;12.45;72.06;100739.19;4901311;28;128099;-61
2021/04/20 04:02:13;;;;;;;16.17;14.50;;;;;;;12.47;71.85;100736.22;4901801;28;117948;-61
2021/04/20 04:04:39;;;;;;;16.77;14.38;;;;;;;12.46;72.02;100738.13;4902670;28;125991;-59
2021/04/20 04:07:05;;;;;;;16.08;14.38;;;;;;;12.49;71.95;100744.84;4885871;28;98642;-59
2021/04/20 04:09:32;;;;;;;16.50;14.70;;;;;;;12.50;71.88;100743.78;4900831;28;126293;-61
2021/04/20 04:12:06;;;;;;;17.88;14.93;;;;;;;12.45;71.72;100736.47;4885338;28;117534;-61
2021/04/20 04:14:33;;;;;;;17.17;15.30;;;;;;;12.49;72.16;100742.16;4900546;28;114800;-59
2021/04/20 04:17:06;;;;;;;16.90;15.07;;;;;;;12.49;71.91;100747.56;4901580;28;104994;-61
2021/04/20 04:19:40;;;;;;;17.55;15.15;;;;;;;12.52;71.84;100742.41;4903188;28;98144;-59
2021/04/20 04:22:12;;;;;;;16.98;15.20;;;;;;;12.60;71.73;100746.47;4897788;28;98040;-61
2021/04/20 04:24:58;;;;;;;18.60;16.13;;;;;;;12.66;71.39;100748.09;4882517;28;98519;-61
2021/04/20 04:27:27;;;;;;;17.75;15.82;;;;;;;12.68;71.35;100745.91;4882828;28;98084;-61
2021/04/20 04:30:10;;;;;;;17.42;15.60;;;;;;;12.74;70.94;100744.00;4881424;28;98740;-61
2021/04/20 04:32:36;;;;;;;18.42;15.00;;;;;;;12.76;71.09;100755.34;4887761;28;98167;-59
2021/04/20 04:35:04;;;;;;;17.35;15.43;;;;;;;12.78;71.07;100747.78;4901755;28;98555;-61
2021/04/20 04:37:30;;;;;;;17.50;15.63;;;;;;;12.83;70.75;100744.25;4903269;28;99007;-59
2021/04/20 04:39:57;;;;;;;17.50;15.30;;;;;;;12.83;70.64;100749.66;4901298;28;98048;-61
2021/04/20 04:42:23;;;;;;;17.27;15.25;;;;;;;12.86;70.75;100741.81;4901287;28;97892;-59
2021/04/20 04:44:52;;;;;;;18.50;16.00;;;;;;;12.87;70.72;100753.44;4900125;28;127371;-61
2021/04/20 04:47:18;;;;;;;18.48;16.40;;;;;;;12.90;70.55;100752.88;4902512;28;126332;-59
2021/04/20 04:49:45;;;;;;;18.27;16.08;;;;;;;12.89;70.62;100751.25;4896647;28;126539;-61
2021/04/20 04:52:12;;;;;;;20.45;16.30;;;;;;;12.94;70.61;100760.16;4884252;28;97699;-61
2021/04/20 04:54:38;;;;;;;18.63;15.60;;;;;;;12.94;70.48;100749.34;4881145;28;115146;-59
2021/04/20 04:57:05;;;;;;;18.42;16.23;;;;;;;12.97;70.43;100756.13;4897795;28;127456;-61
2021/04/20 04:59:31;;;;;;;19.77;17.13;;;;;;;12.99;70.53;100760.16;4882554;28;97897;-61
2021/04/20 05:01:57;;;;;;;20.40;16.77;;;;;;;13.01;70.31;100751.78;4898790;28;97831;-61
2021/04/20 05:04:24;;;;;;;19.75;16.85;;;;;;;13.02;70.61;100751.47;4897123;28;114169;-59
2021/04/20 05:06:51;;;;;;;21.83;17.75;;;;;;;13.07;70.57;100758.75;4884378;28;98467;-61
2021/04/20 05:09:21;;;;;;;21.25;16.73;;;;;;;13.08;70.53;100754.97;4882934;28;104404;-61
2021/04/20 05:11:49;;;;;;;21.17;18.13;;;;;;;13.11;70.53;100761.72;4883293;28;109105;-61
2021/04/20 05:14:16;;;;;;;21.73;18.42;;;;;;;13.13;70.53;100756.88;4883048;28;114423;-59
2021/04/20 05:16:46;;;;;;;22.45;18.25;;;;;;;13.15;70.34;100763.59;4883927;28;98963;-59
2021/04/20 05:19:13;;;;;;;22.27;18.38;;;;;;;13.17;70.36;100755.22;4896690;28;98567;-59
2021/04/20 05:21:40;;;;;;;22.92;18.88;;;;;;;13.20;70.29;100765.47;4884677;28;107599;-61
2021/04/20 05:24:07;;;;;;;22.42;19.23;;;;;;;13.23;70.46;100764.97;4903445;28;98264;-60
2021/04/20 05:26:33;;;;;;;22.25;18.92;;;;;;;13.28;70.10;100759.50;4903584;28;98454;-61
2021/04/20 05:29:03;;;;;;;23.40;18.42;;;;;;;13.35;70.08;100759.22;4883324;28;127530;-59
2021/04/20 05:31:30;;;;;;;20.92;17.67;;;;;;;13.42;70.06;100765.13;4902659;28;97844;-61
2021/04/20 05:34:04;;;;;;;21.45;18.30;;;;;;;13.53;69.74;100766.72;4901590;28;128786;-59
2021/04/20 05:36:30;;;;;;;20.88;18.08;;;;;;;13.60;69.63;100764.50;4903181;28;98709;-59
2021/04/20 05:38:58;;;;;;;22.23;18.70;;;;;;;13.66;69.86;100767.97;4900685;28;102206;-61
2021/04/20 05:41:26;;;;;;;24.83;19.17;;;;;;;13.71;69.60;100773.34;4901126;28;97805;-62
2021/04/20 05:43:53;;;;;;;21.20;18.15;;;;;;;13.79;69.44;100766.53;4884649;28;118512;-61
2021/04/20 05:46:19;;;;;;;21.33;19.00;;;;;;;13.84;69.08;100758.41;4901525;28;101852;-61
2021/04/20 05:48:46;;;;;;;20.92;18.42;;;;;;;13.92;69.02;100766.72;4898465;28;110638;-59
2021/04/20 05:51:13;;;;;;;20.95;18.55;;;;;;;13.95;69.02;100768.88;4909353;28;98149;-61
2021/04/20 05:53:39;;;;;;;20.95;18.52;;;;;;;14.03;69.10;100772.06;4894058;28;98625;-59
2021/04/20 05:56:06;;;;;;;20.92;18.50;;;;;;;14.12;68.89;100764.97;4899134;28;105962;-59
2021/04/20 05:58:32;;;;;;;21.38;18.73;;;;;;;14.24;68.22;100760.78;4902801;28;97758;-60
2021/04/20 06:01:03;;;;;;;21.92;18.90;;;;;;;14.39;68.30;100759.84;4900492;28;98026;-62
2021/04/20 06:03:29;;;;;;;22.00;18.77;;;;;;;14.57;67.88;100755.59;4902406;28;119104;-61
2021/04/20 06:05:57;;;;;;;22.08;18.65;;;;;;;14.73;67.54;100758.97;4884622;28;100071;-62
2021/04/20 06:08:23;;;;;;;22.27;19.40;;;;;;;14.83;67.05;100758.88;4916166;28;128647;-59
2021/04/20 06:10:49;;;;;;;22.48;18.90;;;;;;;14.97;66.75;100761.69;4900143;28;111421;-61
2021/04/20 06:13:15;;;;;;;21.42;18.67;;;;;;;15.02;67.38;100758.94;4916461;28;109523;-63
2021/04/20 06:15:41;;;;;;;22.67;18.70;;;;;;;15.17;66.98;100763.38;4899860;28;97831;-61
2021/04/20 06:18:08;;;;;;;21.80;18.45;;;;;;;15.38;66.18;100758.47;4883756;28;125692;-62
2021/04/20 06:20:34;;;;;;;22.75;18.85;;;;;;;15.32;66.31;100756.91;4901333;28;100888;-59
2021/04/20 06:23:00;;;;;;;23.33;19.55;;;;;;;15.32;66.59;100763.16;4901063;28;129306;-62
2021/04/20 06:25:26;;;;;;;22.30;19.70;;;;;;;15.34;66.50;100766.41;4883917;28;99045;-59
2021/04/20 06:27:52;;;;;;;22.17;19.83;;;;;;;15.35;67.08;100762.56;4883255;28;127472;-62
2021/04/20 06:30:19;;;;;;;24.73;20.20;;;;;;;15.34;67.26;100760.97;4883770;28;116034;-62
2021/04/20 06:32:46;;;;;;;23.17;20.08;;;;;;;15.33;67.47;100767.50;4905140;28;100132;-59
2021/04/20 06:35:14;;;;;;;23.48;20.08;;;;;;;15.23;67.84;100767.63;4904419;28;99048;-61
2021/04/20 06:37:42;;;;;;;23.45;20.63;;;;;;;15.18;68.08;100768.50;4905085;28;98157;-59
2021/04/20 06:40:11;;;;;;;24.75;21.58;;;;;;;15.15;68.24;100769.06;4902861;28;105623;-62
2021/04/20 06:42:47;;;;;;;25.77;22.10;;;;;;;15.13;67.90;100775.88;4903856;28;115011;-61
2021/04/20 06:45:28;;;;;;;25.58;22.48;;;;;;;15.15;67.81;100766.38;4883264;28;99315;-59
2021/04/20 06:48:06;;;;;;;26.92;22.15;;;;;;;15.20;68.35;100770.91;4883878;28;106751;-61
2021/04/20 06:50:32;;;;;;;26.08;22.80;;;;;;;15.19;68.03;100761.97;4898538;28;106101;-59
2021/04/20 06:52:58;;;;;;;27.13;22.50;;;;;;;15.22;68.31;100774.97;4868755;28;99318;-62
2021/04/20 06:55:52;;;;;;;27.38;23.55;;;;;;;15.22;68.17;100763.31;4885389;28;99013;-60
2021/04/20 06:58:26;;;;;;;28.17;22.85;;;;;;;15.21;68.42;100775.28;4885859;28;98182;-61
2021/04/20 07:00:55;;;;;;;27.45;23.33;;;;;;;15.24;68.11;100769.22;4883911;28;97888;-61
2021/04/20 07:03:35;;;;;;;28.92;23.75;;;;;;;15.27;67.84;100768.66;4886660;28;98775;-59
2021/04/20 07:06:37;;;;;;;27.23;23.95;;;;;;;15.38;67.66;100769.34;4883205;28;118432;-60
2021/04/20 07:09:18;;;;;;;28.92;24.63;;;;;;;15.42;67.61;100773.91;4884414;28;97921;-61
2021/04/20 07:11:48;;;;;;;27.50;24.08;;;;;;;15.45;67.97;100767.09;4885595;28;97946;-59
2021/04/20 07:14:46;;;;;;;28.20;24.50;;;;;;;15.42;67.96;100767.66;4904393;28;98632;-61
2021/04/20 07:17:28;;;;;;;31.35;26.00;;;;;;;15.52;68.00;100767.50;4887488;28;118043;-61
2021/04/20 07:20:31;;;;;;;28.83;25.15;;;;;;;15.70;67.55;100774.09;4872665;28;98242;-59
2021/04/20 07:23:23;;;;;;;;;;;;;;;15.97;66.49;100765.25;4874666;28;97892;-59
2021/04/20 07:26:10;;;;;;;31.15;26.15;;;;;;;15.85;67.22;100773.88;4904661;28;98875;-59
2021/04/20 07:28:52;;;;;;;28.85;24.92;;;;;;;15.90;67.05;100767.53;4903112;28;98784;-62
2021/04/20 07:31:58;;;;;;;29.33;25.13;;;;;;;15.97;66.96;100778.84;4902352;28;98137;-59
2021/04/20 07:34:49;;;;;;;29.40;25.25;;;;;;;16.03;67.03;100772.22;4902447;28;98028;-61
2021/04/20 07:37:46;;;;;;;31.30;26.55;;;;;;;16.13;66.90;100768.53;4902141;28;99019;-59
2021/04/20 07:40:40;;;;;;;29.80;25.80;;;;;;;16.20;66.86;100771.69;4903797;28;99012;-61
2021/04/20 07:43:28;;;;;;;31.30;25.25;;;;;;;16.22;66.74;100771.38;4903889;28;98471;-61
2021/04/20 07:46:12;;;;;;;29.98;25.65;;;;;;;16.32;66.39;100768.50;4902606;28;97773;-62
2021/04/20 07:48:55;;;;;;;28.73;24.88;;;;;;;16.48;66.54;100766.31;4902198;28;98022;-61
2021/04/20 07:51:58;;;;;;;28.67;25.35;;;;;;;16.61;66.24;100768.25;4900404;28;99718;-60
2021/04/20 07:55:16;;;;;;;29.42;25.38;;;;;;;16.73;65.91;100768.59;4901761;28;98429;-59
2021/04/20 07:58:03;;;;;;;27.58;24.60;;;;;;;16.80;65.84;100769.00;4903880;28;97764;-62
2021/04/20 08:00:35;;;;;;;29.30;24.45;;;;;;;16.81;65.94;100758.91;4901000;28;117227;-63
2021/04/20 08:03:38;;;;;;;27.65;24.58;;;;;;;16.89;65.92;100756.28;4901419;28;98851;-62
2021/04/20 08:06:21;;;;;;;28.85;25.02;;;;;;;17.01;65.59;100753.06;4901130;28;97859;-61
2021/04/20 08:08:50;;;;;;;29.60;25.02;;;;;;;17.38;64.85;100759.41;4886630;28;97721;-62
2021/04/20 08:11:30;;;;;;;26.95;23.52;;;;;;;17.95;63.29;100758.94;4901124;28;97882;-61
2021/04/20 08:14:15;;;;;;;26.38;23.58;;;;;;;18.44;62.36;100744.34;4901283;28;114231;-60
2021/04/20 08:17:10;;;;;;;27.40;23.95;;;;;;;18.82;61.54;100744.72;4903390;28;98267;-60
2021/04/20 08:20:12;;;;;;;25.15;22.45;;;;;;;19.71;59.41;100742.63;4903953;28;105126;-60
2021/04/20 08:22:38;;;;;;;24.80;22.30;;;;;;;21.43;55.14;100733.38;4890966;28;107106;-60
2021/04/20 08:25:27;;;;;;;23.98;21.58;;;;;;;21.76;54.86;100736.94;4901665;28;116181;-62
2021/04/20 08:28:32;;;;;;;22.08;19.83;;;;;;;22.63;53.43;100746.25;4900222;28;117439;-62
2021/04/20 08:31:39;;;;;;;21.23;19.17;;;;;;;23.86;51.43;100735.94;4900987;28;97889;-60
2021/04/20 08:34:33;;;;;;;20.35;18.25;;;;;;;24.87;49.68;100729.91;4902833;28;99190;-61
2021/04/20 08:37:03;;;;;;;18.67;16.88;;;;;;;24.28;51.05;100747.31;4902871;28;98294;-60
2021/04/20 08:39:55;;;;;;;18.27;16.50;;;;;;;23.75;52.78;100739.19;4902092;28;97699;-60
2021/04/20 08:42:32;;;;;;;18.85;16.95;;;;;;;23.72;53.21;100745.38;4904001;28;98263;-62
2021/04/20 08:45:25;;;;;;;19.13;17.13;;;;;;;23.52;53.70;100740.84;4901281;28;98753;-62
2021/04/20 08:48:23;;;;;;;18.75;16.95;;;;;;;24.91;50.56;100739.06;4902576;28;98170;-60
2021/04/20 08:50:59;;;;;;;18.25;16.55;;;;;;;26.10;47.94;100734.16;4887194;28;113901;-63
2021/04/20 08:54:19;;;;;;;16.25;14.75;;;;;;;28.83;42.57;100729.09;4886516;28;97984;-63
2021/04/20 08:57:08;;;;;;;15.05;13.68;;;;;;;30.01;40.61;100744.38;4901111;28;98381;-64
2021/04/20 09:00:00;;;;;;;13.52;12.32;;;;;;;30.01;41.26;100738.81;4901090;28;99507;-64
2021/04/20 09:02:59;;;;;;;12.85;11.65;;;;;;;28.71;43.39;100738.50;4902640;28;98509;-63
2021/04/20 09:05:48;;;;;;;12.75;11.45;;;;;;;28.77;43.47;100730.66;4901100;28;97782;-63
2021/04/20 09:08:32;;;;;;;13.00;11.80;;;;;;;27.16;46.47;100737.94;4903077;28;104346;-60
2021/04/20 09:11:19;;;;;;;13.77;12.45;;;;;;;26.30;48.50;100732.16;4901327;28;98603;-61
2021/04/20 09:14:12;;;;;;;13.43;12.23;;;;;;;25.67;49.82;100725.81;4901969;28;98370;-63
2021/04/20 09:17:09;;;;;;;13.80;12.50;;;;;;;25.33;50.46;100724.69;4916601;28;111389;-62
2021/04/20 09:19:41;;;;;;;13.60;12.40;;;;;;;25.49;50.24;100718.31;4902003;28;98203;-63
2021/04/20 09:22:08;;;;;;;13.82;12.52;;;;;;;25.25;50.71;100717.41;4917076;28;98684;-60
2021/04/20 09:24:47;;;;;;;14.23;12.82;;;;;;;25.34;50.86;100714.44;4901955;28;97882;-62
2021/04/20 09:27:21;;;;;;;14.07;12.77;;;;;;;24.70;51.75;100713.75;4901068;28;105690;-62
2021/04/20 09:29:53;;;;;;;14.60;13.20;;;;;;;24.38;53.00;100721.22;4884419;28;116334;-60
2021/04/20 09:32:21;;;;;;;14.07;12.77;;;;;;;24.25;52.80;100710.28;4903503;28;98471;-63
2021/04/20 09:34:50;;;;;;;15.00;13.60;;;;;;;24.31;52.88;100719.06;4902114;28;98316;-62
2021/04/20 09:37:17;;;;;;;15.20;13.70;;;;;;;24.21;52.77;100714.09;4903277;28;97899;-60
2021/04/20 09:39:46;;;;;;;15.85;14.25;;;;;;;24.16;52.83;100708.81;4884344;28;100651;-60
2021/04/20 09:42:12;;;;;;;14.57;13.18;;;;;;;24.93;51.06;100713.91;4900794;28;101101;-63
2021/04/20 09:45:19;;;;;;;13.70;12.43;;;;;;;25.70;49.60;100713.22;4900205;28;98416;-61
2021/04/20 09:48:19;;;;;;;13.05;11.85;;;;;;;26.46;48.52;100710.75;4901569;28;98045;-63
2021/04/20 09:51:03;;;;;;;12.45;11.27;;;;;;;28.93;43.24;100708.97;4900027;28;98612;-61
2021/04/20 09:53:55;;;;;;;12.13;11.05;;;;;;;27.69;45.94;100714.88;4902082;28;98823;-61
2021/04/20 09:56:45;;;;;;;11.88;10.80;;;;;;;28.27;44.83;100713.56;4901840;28;98019;-61
2021/04/20 09:59:17;;;;;;;11.13;10.13;;;;;;;30.95;39.94;100711.91;4896641;28;100398;-61
2021/04/20 10:01:58;;;;;;;10.18;9.27;;;;;;;29.17;43.47;100707.53;4893556;28;98345;-61
2021/04/20 10:04:45;;;;;;;9.50;8.70;;;;;;;30.96;40.25;100713.47;4903470;28;98715;-61
2021/04/20 10:07:49;;;;;;;10.38;9.48;;;;;;;32.11;38.45;100711.03;4888738;28;98252;-63
2021/04/20 10:10:31;;;;;;;9.68;8.77;;;;;;;32.58;37.25;100711.50;4905455;28;97839;-61
2021/04/20 10:13:41;;;;;;;9.13;8.38;;;;;;;30.37;41.41;100713.88;4891030;28;98492;-61
2021/04/20 10:16:23;;;;;;;9.30;8.50;;;;;;;28.90;43.85;100703.38;4903389;28;98467;-61
2021/04/20 10:19:17;;;;;;;11.25;10.30;;;;;;;28.40;44.71;100700.22;4919930;28;108380;-63
2021/04/20 10:22:15;;;;;;;11.45;10.45;;;;;;;27.99;45.84;100701.03;4905073;28;103787;-61
2021/04/20 10:24:48;;;;;;;12.32;11.23;;;;;;;27.65;45.98;100692.69;4917147;28;98102;-61
2021/04/20 10:27:20;;;;;;;12.50;11.30;;;;;;;26.96;47.50;100691.38;4903840;28;104306;-60
2021/04/20 10:29:51;;;;;;;12.90;11.77;;;;;;;26.34;49.04;100702.63;4903366;28;104624;-60
2021/04/20 10:32:22;;;;;;;12.70;11.52;;;;;;;25.99;49.76;100694.50;4887401;28;110870;-63
2021/04/20 10:34:50;;;;;;;13.10;11.90;;;;;;;27.48;46.52;100684.19;4902778;28;98277;-60
2021/04/20 10:37:18;;;;;;;12.45;11.35;;;;;;;28.01;45.65;100678.47;4903363;28;98577;-63
2021/04/20 10:39:50;;;;;;;11.75;10.70;;;;;;;30.84;40.28;100677.75;4886490;28;98229;-61
2021/04/20 10:42:23;;;;;;;10.25;9.35;;;;;;;31.14;39.77;100696.75;4904465;28;98055;-61
2021/04/20 10:44:49;;;;;;;9.88;9.07;;;;;;;32.09;38.38;100680.00;4901698;28;114895;-63
2021/04/20 10:47:18;;;;;;;9.20;8.50;;;;;;;33.33;36.25;100680.84;4885427;28;125997;-61
2021/04/20 10:49:44;;;;;;;8.82;8.02;;;;;;;31.04;40.39;100687.22;4886065;28;112011;-64
2021/04/20 10:52:11;;;;;;;9.48;8.57;;;;;;;30.06;42.09;100677.34;4886676;28;98123;-63
2021/04/20 10:54:38;;;;;;;11.10;9.88;;;;;;;29.19;44.16;100671.06;4902787;28;98517;-61
2021/04/20 10:57:05;;;;;;;11.57;10.57;;;;;;;28.51;44.44;100665.09;4904951;28;99009;-61
2021/04/20 10:59:41;;;;;;;12.02;11.02;;;;;;;27.68;46.76;100671.78;4902887;28;98021;-63
2021/04/20 11:02:17;;;;;;;13.02;11.93;;;;;;;27.03;47.83;100667.38;4902945;28;98097;-63
2021/04/20 11:04:43;;;;;;;13.07;11.88;;;;;;;27.08;47.61;100660.75;4902004;28;98800;-63
2021/04/20 11:07:27;;;;;;;12.75;11.57;;;;;;;26.67;48.88;100663.31;4885463;28;108195;-63
2021/04/20 11:09:58;;;;;;;12.63;11.50;;;;;;;26.28;49.20;100648.84;4904106;28;99736;-60
2021/04/20 11:12:24;;;;;;;13.57;12.20;;;;;;;26.20;49.42;100653.44;4901742;28;98114;-63
2021/04/20 11:14:52;;;;;;;13.05;11.85;;;;;;;26.17;49.85;100655.00;4900921;28;99007;-60
2021/04/20 11:17:44;;;;;;;12.35;11.25;;;;;;;27.89;46.01;100636.03;4903410;28;98984;-61
2021/04/20 11:20:39;;;;;;;;;;;;;;;27.51;46.67;100639.16;4904957;28;98155;-60
2021/04/20 11:23:11;;;;;;;11.45;10.35;;;;;;;26.83;48.32;100641.81;4891409;28;98132;-61
2021/04/20 11:26:00;;;;;;;11.98;10.88;;;;;;;27.45;47.16;100638.69;4904073;28;99185;-63
2021/04/20 11:28:44;;;;;;;10.82;9.93;;;;;;;26.82;48.90;100639.44;4902179;28;98413;-61
2021/04/20 11:31:38;;;;;;;11.05;10.05;;;;;;;29.33;43.73;100632.28;4884846;28;97904;-61
2021/04/20 11:34:25;;;;;;;9.70;8.85;;;;;;;31.02;41.19;100636.75;4869660;28;99652;-61
2021/04/20 11:36:54;;;;;;;9.07;8.27;;;;;;;31.79;39.25;100634.00;4883144;28;98959;-63
2021/04/20 11:39:55;;;;;;;8.48;7.78;;;;;;;32.30;38.83;100631.63;4884007;28;98171;-61